METAR Data
IDs: Format: Raw Decoded Include TAF

Data at: 1951 UTC 26 Sep 2021

METAR for:KM54 (Lebanon Muni, TN, US)
Text:KM54 261935Z AUTO 19004G11KT 10SM CLR 26/12 A3009 RMK A01
Temperature: 26.0°C ( 79°F)
Dewpoint: 12.0°C ( 54°F) [RH = 42%]
Pressure (altimeter):30.09 inches Hg (1019.0 mb)
Winds:from the S (190 degrees) at 5 MPH (4 knots; 2.1 m/s) gusting to 13 MPH (11 knots; 5.7 m/s)
Visibility:10 or more sm (16+ km)
Ceiling:at least 12,000 feet AGL
Clouds:sky clear below 12,000 feet AGL
QC Flag:automated observation with no human augmentation